createdAt,value
2016-12-20T00:00:11.876Z,1022.56
2016-12-20T00:01:22.864Z,1022.54
2016-12-20T00:02:33.847Z,1022.53
2016-12-20T00:03:44.832Z,1022.48
2016-12-20T00:04:55.819Z,1022.47
2016-12-20T00:06:06.803Z,1022.43
2016-12-20T00:07:17.791Z,1022.46
2016-12-20T00:08:28.833Z,1022.51
2016-12-20T00:09:40.020Z,1022.54
2016-12-20T00:10:51.008Z,1022.57
2016-12-20T00:12:01.997Z,1022.56
2016-12-20T00:13:13.187Z,1022.57
2016-12-20T00:14:24.170Z,1022.57
2016-12-20T00:15:35.214Z,1022.55
2016-12-20T00:16:46.206Z,1022.61
2016-12-20T00:17:57.189Z,1022.62
2016-12-20T00:19:08.169Z,1022.6
2016-12-20T00:20:19.593Z,1022.63
2016-12-20T00:21:30.582Z,1022.65
2016-12-20T00:22:41.764Z,1022.65
2016-12-20T00:23:52.751Z,1022.66
2016-12-20T00:25:03.733Z,1022.67
2016-12-20T00:26:14.713Z,1022.66
2016-12-20T00:27:25.698Z,1022.59
2016-12-20T00:28:36.687Z,1022.55
2016-12-20T00:29:47.709Z,1022.62
2016-12-20T00:30:58.684Z,1022.62
2016-12-20T00:32:09.677Z,1022.66
2016-12-20T00:33:20.868Z,1022.69
2016-12-20T00:34:31.850Z,1022.67
2016-12-20T00:35:42.865Z,1022.7
2016-12-20T00:36:54.048Z,1022.7
2016-12-20T00:38:05.032Z,1022.71
2016-12-20T00:39:16.012Z,1022.64
2016-12-20T00:40:27.046Z,1022.65
2016-12-20T00:41:38.049Z,1022.63
2016-12-20T00:42:49.035Z,1022.58
2016-12-20T00:44:00.021Z,1022.61
2016-12-20T00:45:11.010Z,1022.59
2016-12-20T00:46:21.992Z,1022.59
2016-12-20T00:47:33.012Z,1022.52
2016-12-20T00:48:44.192Z,1022.56
2016-12-20T00:49:55.189Z,1022.58
2016-12-20T00:51:06.217Z,1022.53
2016-12-20T00:52:17.397Z,1022.54
2016-12-20T00:53:28.378Z,1022.55
2016-12-20T00:54:39.365Z,1022.51
2016-12-20T00:55:50.405Z,1022.54
2016-12-20T00:57:01.389Z,1022.51
2016-12-20T00:58:12.367Z,1022.5
2016-12-20T00:59:23.553Z,1022.49
2016-12-20T01:00:34.540Z,1022.5
2016-12-20T01:01:45.519Z,1022.51
2016-12-20T01:02:56.501Z,1022.39
2016-12-20T01:04:07.480Z,1022.37
2016-12-20T01:05:18.470Z,1022.37
2016-12-20T01:06:29.647Z,1022.33
2016-12-20T01:07:40.621Z,1022.29
2016-12-20T01:08:51.609Z,1022.18
2016-12-20T01:10:02.598Z,1022.18
2016-12-20T01:11:13.787Z,1022.21
2016-12-20T01:12:24.771Z,1022.21
2016-12-20T01:13:35.960Z,1022.21
2016-12-20T01:14:46.934Z,1022.24
2016-12-20T01:15:57.916Z,1022.27
2016-12-20T01:17:08.899Z,1022.24
2016-12-20T01:18:19.879Z,1022.24
2016-12-20T01:19:30.865Z,1022.25
2016-12-20T01:20:41.847Z,1022.31
2016-12-20T01:21:52.830Z,1022.34
2016-12-20T01:23:03.820Z,1022.4
2016-12-20T01:24:15.219Z,1022.43
2016-12-20T01:25:26.402Z,1022.46
2016-12-20T01:26:37.386Z,1022.53
2016-12-20T01:27:48.385Z,1022.54
2016-12-20T01:28:59.363Z,1022.53
2016-12-20T01:30:10.348Z,1022.56
2016-12-20T01:31:21.329Z,1022.56
2016-12-20T01:32:32.338Z,1022.54
2016-12-20T01:33:43.324Z,1022.49
2016-12-20T01:34:54.309Z,1022.47
2016-12-20T01:36:05.343Z,1022.46
2016-12-20T01:37:16.326Z,1022.42
2016-12-20T01:38:27.513Z,1022.43
2016-12-20T01:39:38.700Z,1022.46
2016-12-20T01:40:49.689Z,1022.44
2016-12-20T01:42:00.675Z,1022.47
2016-12-20T01:43:11.857Z,1022.48
2016-12-20T01:44:22.837Z,1022.48
2016-12-20T01:45:33.821Z,1022.49
2016-12-20T01:46:44.812Z,1022.53
2016-12-20T01:47:55.797Z,1022.51
2016-12-20T01:49:06.783Z,1022.5
2016-12-20T01:50:17.784Z,1022.45
2016-12-20T01:51:28.973Z,1022.41
2016-12-20T01:52:39.955Z,1022.42
2016-12-20T01:53:50.945Z,1022.37
2016-12-20T01:55:02.133Z,1022.39
2016-12-20T01:56:13.117Z,1022.39
2016-12-20T01:57:24.101Z,1022.31
2016-12-20T01:58:35.117Z,1022.29
2016-12-20T01:59:46.100Z,1022.32
2016-12-20T02:00:57.096Z,1022.31
2016-12-20T02:02:08.084Z,1022.35
2016-12-20T02:03:19.271Z,1022.35
2016-12-20T02:04:30.458Z,1022.36
2016-12-20T02:05:41.697Z,1022.38
2016-12-20T02:06:52.682Z,1022.38
2016-12-20T02:08:03.677Z,1022.45
2016-12-20T02:09:14.663Z,1022.39
2016-12-20T02:10:25.642Z,1022.38
2016-12-20T02:11:36.628Z,1022.4
2016-12-20T02:12:47.611Z,1022.41
2016-12-20T02:13:58.597Z,1022.38
2016-12-20T02:15:09.632Z,1022.37
2016-12-20T02:16:20.615Z,1022.38
2016-12-20T02:17:31.591Z,1022.36
2016-12-20T02:18:42.777Z,1022.36
2016-12-20T02:19:53.763Z,1022.34
2016-12-20T02:21:04.802Z,1022.33
2016-12-20T02:22:15.990Z,1022.32
2016-12-20T02:23:26.979Z,1022.33
2016-12-20T02:24:37.961Z,1022.32
2016-12-20T02:25:48.950Z,1022.28
2016-12-20T02:27:00.390Z,1022.29
2016-12-20T02:28:11.375Z,1022.26
2016-12-20T02:29:22.367Z,1022.3
2016-12-20T02:30:33.549Z,1022.33
2016-12-20T02:31:44.532Z,1022.29
2016-12-20T02:32:55.563Z,1022.25
2016-12-20T02:34:06.542Z,1022.23
2016-12-20T02:35:17.526Z,1022.15
2016-12-20T02:36:28.526Z,1022.1
2016-12-20T02:37:39.507Z,1022.05
2016-12-20T02:38:50.587Z,1022.04
2016-12-20T02:40:01.781Z,1022.01
2016-12-20T02:41:12.767Z,1021.98
2016-12-20T02:42:23.750Z,1022
2016-12-20T02:43:34.726Z,1021.97
2016-12-20T02:44:45.785Z,1021.98
2016-12-20T02:45:56.763Z,1022.01
2016-12-20T02:47:07.784Z,1022.02
2016-12-20T02:48:18.766Z,1022.02
2016-12-20T02:49:29.750Z,1021.99
2016-12-20T02:50:40.937Z,1021.97
2016-12-20T02:51:51.912Z,1021.93
2016-12-20T02:53:02.897Z,1021.95
2016-12-20T02:54:13.881Z,1021.89
2016-12-20T02:55:24.855Z,1021.88
2016-12-20T02:56:35.857Z,1021.88
2016-12-20T02:57:46.839Z,1021.86
2016-12-20T02:58:57.823Z,1021.85
2016-12-20T03:00:08.816Z,1021.89
2016-12-20T03:01:19.801Z,1021.88
2016-12-20T03:02:30.779Z,1021.88
2016-12-20T03:03:41.762Z,1021.86
2016-12-20T03:04:52.949Z,1021.89
2016-12-20T03:06:03.929Z,1021.91
2016-12-20T03:07:14.915Z,1021.94
2016-12-20T03:08:25.899Z,1021.9
2016-12-20T03:09:36.885Z,1021.83
2016-12-20T03:10:47.868Z,1021.83
2016-12-20T03:11:58.886Z,1021.77
2016-12-20T03:13:09.876Z,1021.72
2016-12-20T03:14:20.861Z,1021.74
2016-12-20T03:15:31.854Z,1021.76
2016-12-20T03:16:42.845Z,1021.77
2016-12-20T03:17:54.231Z,1021.76
2016-12-20T03:19:05.208Z,1021.76
2016-12-20T03:20:16.191Z,1021.76
2016-12-20T03:21:27.179Z,1021.77
2016-12-20T03:22:38.168Z,1021.79
2016-12-20T03:23:49.146Z,1021.83
2016-12-20T03:25:00.126Z,1021.82
2016-12-20T03:26:11.158Z,1021.82
2016-12-20T03:27:22.146Z,1021.8
2016-12-20T03:28:33.127Z,1021.83
2016-12-20T03:29:44.107Z,1021.81
2016-12-20T03:30:55.293Z,1021.73
2016-12-20T03:32:06.279Z,1021.72
2016-12-20T03:33:17.297Z,1021.72
2016-12-20T03:34:28.276Z,1021.68
2016-12-20T03:35:39.267Z,1021.69
2016-12-20T03:36:50.249Z,1021.65
2016-12-20T03:38:01.233Z,1021.69
2016-12-20T03:39:12.219Z,1021.69
2016-12-20T03:40:23.610Z,1021.66
2016-12-20T03:41:34.593Z,1021.72
2016-12-20T03:42:45.575Z,1021.69
2016-12-20T03:43:56.552Z,1021.71
2016-12-20T03:45:07.529Z,1021.67
2016-12-20T03:46:18.518Z,1021.68
2016-12-20T03:47:29.503Z,1021.71
2016-12-20T03:48:40.691Z,1021.63
2016-12-20T03:49:51.674Z,1021.68
2016-12-20T03:51:02.860Z,1021.68
2016-12-20T03:52:13.846Z,1021.67
2016-12-20T03:53:24.818Z,1021.69
2016-12-20T03:54:35.799Z,1021.65
2016-12-20T03:55:46.784Z,1021.68
2016-12-20T03:56:57.766Z,1021.62
2016-12-20T03:58:08.787Z,1021.62
2016-12-20T03:59:19.770Z,1021.61
2016-12-20T04:00:30.807Z,1021.66
2016-12-20T04:01:41.816Z,1021.63
2016-12-20T04:02:52.805Z,1021.65
2016-12-20T04:04:03.991Z,1021.61
2016-12-20T04:05:14.972Z,1021.63
2016-12-20T04:06:25.950Z,1021.59
2016-12-20T04:07:36.957Z,1021.58
2016-12-20T04:08:47.937Z,1021.56
2016-12-20T04:09:58.922Z,1021.52
2016-12-20T04:11:09.916Z,1021.53
2016-12-20T04:12:20.902Z,1021.51
2016-12-20T04:13:31.880Z,1021.5
2016-12-20T04:14:42.860Z,1021.47
2016-12-20T04:15:53.890Z,1021.48
2016-12-20T04:17:04.877Z,1021.49
2016-12-20T04:18:15.854Z,1021.51
2016-12-20T04:19:26.838Z,1021.51
2016-12-20T04:20:37.824Z,1021.52
2016-12-20T04:21:48.810Z,1021.47
2016-12-20T04:22:59.785Z,1021.49
2016-12-20T04:24:10.773Z,1021.47
2016-12-20T04:25:21.758Z,1021.47
2016-12-20T04:26:32.736Z,1021.42
2016-12-20T04:27:43.722Z,1021.41
2016-12-20T04:28:54.904Z,1021.42
2016-12-20T04:30:05.883Z,1021.42
2016-12-20T04:31:17.069Z,1021.4
2016-12-20T04:32:28.051Z,1021.36
2016-12-20T04:33:39.242Z,1021.35
2016-12-20T04:34:50.228Z,1021.32
2016-12-20T04:36:01.265Z,1021.27
2016-12-20T04:37:12.246Z,1021.24
2016-12-20T04:38:23.234Z,1021.27
2016-12-20T04:39:34.220Z,1021.29
2016-12-20T04:40:45.204Z,1021.22
2016-12-20T04:41:56.183Z,1021.27
2016-12-20T04:43:07.195Z,1021.25
2016-12-20T04:44:18.189Z,1021.29
2016-12-20T04:45:29.172Z,1021.25
2016-12-20T04:46:40.557Z,1021.25
2016-12-20T04:47:51.541Z,1021.2
2016-12-20T04:49:02.922Z,1021.21
2016-12-20T04:50:13.908Z,1021.18
2016-12-20T04:51:24.898Z,1021.18
2016-12-20T04:52:36.087Z,1021.15
2016-12-20T04:53:47.259Z,1021.14
2016-12-20T04:54:58.263Z,1021.12
2016-12-20T04:56:09.244Z,1021.1
2016-12-20T04:57:20.231Z,1021.09
2016-12-20T04:58:31.215Z,1021.1
2016-12-20T04:59:42.187Z,1021.06
2016-12-20T05:00:53.204Z,1021.09
2016-12-20T05:02:04.187Z,1021.08
2016-12-20T05:03:15.369Z,1021.09
2016-12-20T05:04:26.355Z,1021.08
2016-12-20T05:05:37.337Z,1021.08
2016-12-20T05:06:48.322Z,1021.02
2016-12-20T05:07:59.303Z,1021.02
2016-12-20T05:09:10.290Z,1020.99
2016-12-20T05:10:21.474Z,1021.02
2016-12-20T05:11:32.444Z,1021
2016-12-20T05:12:43.424Z,1020.98
2016-12-20T05:13:54.608Z,1020.98
2016-12-20T05:15:05.584Z,1020.97
2016-12-20T05:16:16.774Z,1020.97
2016-12-20T05:17:27.760Z,1021
2016-12-20T05:18:38.944Z,1021.01
2016-12-20T05:19:49.928Z,1021
2016-12-20T05:21:00.910Z,1021
2016-12-20T05:22:11.883Z,1021
2016-12-20T05:23:23.064Z,1021.04
2016-12-20T05:24:34.046Z,1021.05
2016-12-20T05:25:45.089Z,1021.06
2016-12-20T05:26:56.277Z,1021.06
2016-12-20T05:28:07.258Z,1021.06
2016-12-20T05:29:18.240Z,1021.05
2016-12-20T05:30:29.272Z,1021.06
2016-12-20T05:31:40.456Z,1021.05
2016-12-20T05:32:51.442Z,1021.07
2016-12-20T05:34:02.428Z,1021.11
2016-12-20T05:35:13.404Z,1021.06
2016-12-20T05:36:24.391Z,1021.12
2016-12-20T05:37:35.374Z,1021.07
2016-12-20T05:38:46.359Z,1021.17
2016-12-20T05:39:57.347Z,1021.16
2016-12-20T05:41:08.564Z,1021.22
2016-12-20T05:42:19.549Z,1021.21
2016-12-20T05:43:30.536Z,1021.23
2016-12-20T05:44:41.520Z,1021.14
2016-12-20T05:45:52.539Z,1021.11
2016-12-20T05:47:03.727Z,1021.11
2016-12-20T05:48:14.708Z,1021.09
2016-12-20T05:49:25.889Z,1021.1
2016-12-20T05:50:36.890Z,1021.06
2016-12-20T05:51:47.868Z,1021.03
2016-12-20T05:52:58.855Z,1021.03
2016-12-20T05:54:09.831Z,1020.99
2016-12-20T05:55:20.862Z,1020.94
2016-12-20T05:56:32.049Z,1020.87
2016-12-20T05:57:43.032Z,1020.93
2016-12-20T05:58:54.011Z,1020.86
2016-12-20T06:00:05.023Z,1020.84
2016-12-20T06:01:16.012Z,1020.86
2016-12-20T06:02:27.199Z,1020.86
2016-12-20T06:03:38.179Z,1020.85
2016-12-20T06:04:49.365Z,1020.83
2016-12-20T06:06:00.341Z,1020.82
2016-12-20T06:07:11.558Z,1020.82
2016-12-20T06:08:22.539Z,1020.85
2016-12-20T06:09:33.516Z,1020.82
2016-12-20T06:10:44.511Z,1020.84
2016-12-20T06:11:55.697Z,1020.88
2016-12-20T06:13:06.719Z,1020.87
2016-12-20T06:14:17.904Z,1020.83
2016-12-20T06:15:28.884Z,1020.82
2016-12-20T06:16:39.868Z,1020.84
2016-12-20T06:17:50.850Z,1020.85
2016-12-20T06:19:01.834Z,1020.89
2016-12-20T06:20:13.018Z,1020.89
2016-12-20T06:21:24.008Z,1020.88
2016-12-20T06:22:34.993Z,1020.95
2016-12-20T06:23:45.981Z,1020.9
2016-12-20T06:24:56.964Z,1020.89
2016-12-20T06:26:08.400Z,1020.86
2016-12-20T06:27:19.589Z,1020.84
2016-12-20T06:28:30.577Z,1020.79
2016-12-20T06:29:41.771Z,1020.74
2016-12-20T06:30:52.958Z,1020.75
2016-12-20T06:32:04.134Z,1020.73
2016-12-20T06:33:15.312Z,1020.74
2016-12-20T06:34:26.495Z,1020.78
2016-12-20T06:35:37.474Z,1020.75
2016-12-20T06:36:48.461Z,1020.67
2016-12-20T06:37:59.444Z,1020.66
2016-12-20T06:39:10.642Z,1020.67
2016-12-20T06:40:21.625Z,1020.64
2016-12-20T06:41:32.606Z,1020.6
2016-12-20T06:42:43.583Z,1020.57
2016-12-20T06:43:54.576Z,1020.62
2016-12-20T06:45:05.563Z,1020.62
2016-12-20T06:46:16.751Z,1020.64
2016-12-20T06:47:27.738Z,1020.68
2016-12-20T06:48:38.715Z,1020.67
2016-12-20T06:49:49.707Z,1020.68
2016-12-20T06:51:00.682Z,1020.7
2016-12-20T06:52:11.655Z,1020.74
2016-12-20T06:53:22.648Z,1020.66
2016-12-20T06:54:33.626Z,1020.71
2016-12-20T06:55:44.696Z,1020.72
2016-12-20T06:56:55.878Z,1020.72
2016-12-20T06:58:06.859Z,1020.74
2016-12-20T06:59:17.835Z,1020.75
2016-12-20T07:00:29.225Z,1020.76
2016-12-20T07:01:40.202Z,1020.72
2016-12-20T07:02:51.403Z,1020.67
2016-12-20T07:04:02.786Z,1020.61
2016-12-20T07:05:13.800Z,1020.61
2016-12-20T07:06:24.785Z,1020.59
2016-12-20T07:07:35.770Z,1020.64
2016-12-20T07:08:46.752Z,1020.62
2016-12-20T07:09:57.725Z,1020.63
2016-12-20T07:11:08.710Z,1020.63
2016-12-20T07:12:19.690Z,1020.6
2016-12-20T07:13:30.910Z,1020.6
2016-12-20T07:14:41.897Z,1020.59
2016-12-20T07:15:52.879Z,1020.59
2016-12-20T07:17:04.059Z,1020.58
2016-12-20T07:18:15.039Z,1020.57
2016-12-20T07:19:26.024Z,1020.52
2016-12-20T07:20:37.010Z,1020.51
2016-12-20T07:21:47.993Z,1020.49
2016-12-20T07:22:58.975Z,1020.52
2016-12-20T07:24:09.967Z,1020.52
2016-12-20T07:25:21.145Z,1020.54
2016-12-20T07:26:32.121Z,1020.54
2016-12-20T07:27:43.112Z,1020.58
2016-12-20T07:28:54.103Z,1020.62
2016-12-20T07:30:05.072Z,1020.61
2016-12-20T07:31:16.058Z,1020.65
2016-12-20T07:32:27.243Z,1020.69
2016-12-20T07:33:38.228Z,1020.73
2016-12-20T07:34:49.210Z,1020.7
2016-12-20T07:36:00.396Z,1020.69
2016-12-20T07:37:11.375Z,1020.65
2016-12-20T07:38:22.360Z,1020.65
2016-12-20T07:39:33.343Z,1020.59
2016-12-20T07:40:44.529Z,1020.62
2016-12-20T07:41:55.507Z,1020.56
2016-12-20T07:43:06.487Z,1020.55
2016-12-20T07:44:17.679Z,1020.48
2016-12-20T07:45:28.667Z,1020.47
2016-12-20T07:46:39.677Z,1020.5
2016-12-20T07:47:50.655Z,1020.51
2016-12-20T07:49:01.641Z,1020.51
2016-12-20T07:50:12.628Z,1020.55
2016-12-20T07:51:23.619Z,1020.55
2016-12-20T07:52:34.604Z,1020.52
2016-12-20T07:53:45.789Z,1020.49
2016-12-20T07:54:57.170Z,1020.49
2016-12-20T07:56:08.560Z,1020.48
2016-12-20T07:57:19.541Z,1020.43
2016-12-20T07:58:30.547Z,1020.46
2016-12-20T07:59:41.522Z,1020.47
2016-12-20T08:00:52.549Z,1020.52
2016-12-20T08:02:03.529Z,1020.54
2016-12-20T08:03:14.718Z,1020.6
2016-12-20T08:04:25.699Z,1020.66
2016-12-20T08:05:36.685Z,1020.68
2016-12-20T08:06:47.659Z,1020.65
2016-12-20T08:07:58.649Z,1020.61
2016-12-20T08:09:09.629Z,1020.62
2016-12-20T08:10:20.614Z,1020.66
2016-12-20T08:11:31.593Z,1020.62
2016-12-20T08:12:42.573Z,1020.61
2016-12-20T08:13:53.757Z,1020.54
2016-12-20T08:15:04.950Z,1020.55
2016-12-20T08:16:16.130Z,1020.47
2016-12-20T08:17:27.115Z,1020.43
2016-12-20T08:18:38.101Z,1020.39
2016-12-20T08:19:49.090Z,1020.36
2016-12-20T08:21:00.113Z,1020.39
2016-12-20T08:22:11.094Z,1020.36
2016-12-20T08:23:22.082Z,1020.4
2016-12-20T08:24:33.261Z,1020.45
2016-12-20T08:25:44.241Z,1020.46
2016-12-20T08:26:55.426Z,1020.49
2016-12-20T08:28:06.412Z,1020.5
2016-12-20T08:29:17.396Z,1020.47
2016-12-20T08:30:28.372Z,1020.47
2016-12-20T08:31:39.381Z,1020.47
2016-12-20T08:32:50.955Z,1020.38
2016-12-20T08:34:01.957Z,1020.37
2016-12-20T08:35:12.937Z,1020.37
2016-12-20T08:36:23.920Z,1020.4
2016-12-20T08:37:34.899Z,1020.39
2016-12-20T08:38:46.077Z,1020.42
2016-12-20T08:39:57.064Z,1020.41
2016-12-20T08:41:08.093Z,1020.47
2016-12-20T08:42:19.081Z,1020.49
2016-12-20T08:43:30.062Z,1020.56
2016-12-20T08:44:41.046Z,1020.52
2016-12-20T08:45:52.027Z,1020.51
2016-12-20T08:47:03.016Z,1020.49
2016-12-20T08:48:14.005Z,1020.48
2016-12-20T08:49:25.225Z,1020.54
2016-12-20T08:50:36.220Z,1020.53
2016-12-20T08:51:47.212Z,1020.52
2016-12-20T08:52:58.227Z,1020.5
2016-12-20T08:54:09.224Z,1020.45
2016-12-20T08:55:20.212Z,1020.46
2016-12-20T08:56:31.601Z,1020.44
2016-12-20T08:57:42.591Z,1020.44
2016-12-20T08:58:53.579Z,1020.49
2016-12-20T09:00:04.762Z,1020.57
2016-12-20T09:01:15.752Z,1020.57
2016-12-20T09:02:26.739Z,1020.53
2016-12-20T09:03:37.728Z,1020.46
2016-12-20T09:04:48.719Z,1020.47
2016-12-20T09:05:59.720Z,1020.45
2016-12-20T09:07:10.709Z,1020.44
2016-12-20T09:08:21.895Z,1020.45
2016-12-20T09:09:32.888Z,1020.48
2016-12-20T09:10:43.882Z,1020.48
2016-12-20T09:11:55.070Z,1020.57
2016-12-20T09:13:06.064Z,1020.52
2016-12-20T09:14:17.253Z,1020.46
2016-12-20T09:15:28.240Z,1020.45
2016-12-20T09:16:39.433Z,1020.45
2016-12-20T09:17:50.426Z,1020.48
2016-12-20T09:19:01.419Z,1020.48
2016-12-20T09:20:12.408Z,1020.47
2016-12-20T09:21:23.397Z,1020.46
2016-12-20T09:22:34.389Z,1020.46
2016-12-20T09:23:45.384Z,1020.44
2016-12-20T09:24:56.378Z,1020.41
2016-12-20T09:26:07.373Z,1020.4
2016-12-20T09:27:18.365Z,1020.44
2016-12-20T09:28:29.368Z,1020.45
2016-12-20T09:29:40.366Z,1020.47
2016-12-20T09:30:51.548Z,1020.38
2016-12-20T09:32:02.549Z,1020.37
2016-12-20T09:33:13.547Z,1020.34
2016-12-20T09:34:24.543Z,1020.34
2016-12-20T09:35:35.536Z,1020.33
2016-12-20T09:36:46.527Z,1020.34
2016-12-20T09:37:57.525Z,1020.37
2016-12-20T09:39:08.517Z,1020.37
2016-12-20T09:40:19.716Z,1020.37
2016-12-20T09:41:30.717Z,1020.39
2016-12-20T09:42:41.710Z,1020.44
2016-12-20T09:43:52.706Z,1020.47
2016-12-20T09:45:03.730Z,1020.52
2016-12-20T09:46:14.731Z,1020.52
2016-12-20T09:47:25.731Z,1020.53
2016-12-20T09:48:36.937Z,1020.5
2016-12-20T09:49:48.138Z,1020.5
2016-12-20T09:50:59.132Z,1020.44
2016-12-20T09:52:10.131Z,1020.49
2016-12-20T09:53:21.126Z,1020.47
2016-12-20T09:54:32.156Z,1020.45
2016-12-20T09:55:43.154Z,1020.45
2016-12-20T09:56:54.190Z,1020.44
2016-12-20T09:58:05.195Z,1020.4
2016-12-20T09:59:16.394Z,1020.4
2016-12-20T10:00:27.439Z,1020.4
2016-12-20T10:01:38.635Z,1020.29
2016-12-20T10:02:49.633Z,1020.29
2016-12-20T10:04:00.828Z,1020.2
2016-12-20T10:05:11.834Z,1020.2
2016-12-20T10:06:22.835Z,1020.19
2016-12-20T10:07:33.839Z,1020.14
2016-12-20T10:08:44.843Z,1020.2
2016-12-20T10:09:55.835Z,1020.15
2016-12-20T10:11:06.832Z,1020.14
2016-12-20T10:12:17.832Z,1020.1
2016-12-20T10:13:28.826Z,1020.08
2016-12-20T10:14:39.851Z,1020.09
2016-12-20T10:15:50.840Z,1020.02
2016-12-20T10:17:01.851Z,1020.01
2016-12-20T10:18:12.850Z,1020.01
2016-12-20T10:19:23.847Z,1020.06
2016-12-20T10:20:34.898Z,1019.99
2016-12-20T10:21:45.900Z,1019.99
2016-12-20T10:22:56.916Z,1019.98
2016-12-20T10:24:07.912Z,1019.93
2016-12-20T10:25:18.919Z,1019.94
2016-12-20T10:26:29.918Z,1019.89
2016-12-20T10:27:40.971Z,1019.89
2016-12-20T10:28:51.961Z,1019.85
2016-12-20T10:30:02.964Z,1019.79
2016-12-20T10:31:13.964Z,1019.82
2016-12-20T10:32:24.962Z,1019.85
2016-12-20T10:33:35.969Z,1019.73
2016-12-20T10:34:46.964Z,1019.75
2016-12-20T10:35:58.153Z,1019.68
2016-12-20T10:37:09.148Z,1019.69
2016-12-20T10:38:20.139Z,1019.7
2016-12-20T10:39:31.133Z,1019.65
2016-12-20T10:40:42.329Z,1019.69
2016-12-20T10:41:53.333Z,1019.67
2016-12-20T10:43:04.332Z,1019.66
2016-12-20T10:44:15.330Z,1019.67
2016-12-20T10:45:26.580Z,1019.67
2016-12-20T10:46:37.583Z,1019.61
2016-12-20T10:47:48.786Z,1019.63
2016-12-20T10:48:59.786Z,1019.62
2016-12-20T10:50:10.863Z,1019.57
2016-12-20T10:51:22.067Z,1019.57
2016-12-20T10:52:33.073Z,1019.55
2016-12-20T10:53:44.075Z,1019.55
2016-12-20T10:54:55.079Z,1019.5
2016-12-20T10:56:06.082Z,1019.49
2016-12-20T10:57:17.080Z,1019.42
2016-12-20T10:58:28.085Z,1019.41
2016-12-20T10:59:39.088Z,1019.37
2016-12-20T11:00:50.097Z,1019.4
2016-12-20T11:02:01.106Z,1019.45
2016-12-20T11:03:12.102Z,1019.44
2016-12-20T11:04:23.118Z,1019.44
2016-12-20T11:05:34.125Z,1019.38
2016-12-20T11:06:45.127Z,1019.47
2016-12-20T11:07:56.529Z,1019.47
2016-12-20T11:09:07.531Z,1019.47
2016-12-20T11:10:18.539Z,1019.5
2016-12-20T11:11:29.533Z,1019.46
2016-12-20T11:12:40.538Z,1019.43
2016-12-20T11:13:51.540Z,1019.42
2016-12-20T11:15:02.588Z,1019.39
2016-12-20T11:16:13.585Z,1019.31
2016-12-20T11:17:24.820Z,1019.37
2016-12-20T11:18:35.824Z,1019.34
2016-12-20T11:19:46.821Z,1019.32
2016-12-20T11:20:57.857Z,1019.31
2016-12-20T11:22:09.050Z,1019.28
2016-12-20T11:23:20.046Z,1019.24
2016-12-20T11:24:31.040Z,1019.2
2016-12-20T11:25:42.025Z,1019.19
2016-12-20T11:26:53.019Z,1019.18
2016-12-20T11:28:04.021Z,1019.16
2016-12-20T11:29:15.016Z,1019.22
2016-12-20T11:30:26.262Z,1019.28
2016-12-20T11:31:37.246Z,1019.15
2016-12-20T11:32:48.242Z,1019.14
2016-12-20T11:33:59.236Z,1019.15
2016-12-20T11:35:10.284Z,1019.1
2016-12-20T11:36:21.268Z,1019.13
2016-12-20T11:37:32.265Z,1019.09
2016-12-20T11:38:43.254Z,1019.09
2016-12-20T11:39:54.265Z,1019.05
2016-12-20T11:41:05.336Z,1019.06
2016-12-20T11:42:16.325Z,1019.08
2016-12-20T11:43:27.521Z,1019.09
2016-12-20T11:44:38.538Z,1019.02
2016-12-20T11:45:49.536Z,1019
2016-12-20T11:47:00.527Z,1018.93
2016-12-20T11:48:11.521Z,1018.95
2016-12-20T11:49:22.513Z,1018.94
2016-12-20T11:50:33.706Z,1018.89
2016-12-20T11:51:44.704Z,1018.89
2016-12-20T11:52:55.696Z,1018.91
2016-12-20T11:54:06.683Z,1018.91
2016-12-20T11:55:17.680Z,1018.85
2016-12-20T11:56:28.678Z,1018.84
2016-12-20T11:57:39.669Z,1018.77
2016-12-20T11:58:50.657Z,1018.7
2016-12-20T12:00:01.647Z,1018.69
2016-12-20T12:01:12.661Z,1018.68
2016-12-20T12:02:24.062Z,1018.69
2016-12-20T12:03:35.052Z,1018.68
2016-12-20T12:04:46.248Z,1018.67
2016-12-20T12:05:57.250Z,1018.64
2016-12-20T12:07:08.241Z,1018.7
2016-12-20T12:08:19.230Z,1018.66
2016-12-20T12:09:30.211Z,1018.68
2016-12-20T12:10:41.403Z,1018.62
2016-12-20T12:11:52.427Z,1018.54
2016-12-20T12:13:03.414Z,1018.49
2016-12-20T12:14:14.404Z,1018.47
2016-12-20T12:15:25.390Z,1018.39
2016-12-20T12:16:36.372Z,1018.39
2016-12-20T12:17:47.356Z,1018.37
2016-12-20T12:18:58.341Z,1018.39
2016-12-20T12:20:09.337Z,1018.41
2016-12-20T12:21:20.351Z,1018.43
2016-12-20T12:22:31.335Z,1018.4
2016-12-20T12:23:42.322Z,1018.4
2016-12-20T12:24:53.307Z,1018.4
2016-12-20T12:26:04.293Z,1018.32
2016-12-20T12:27:15.283Z,1018.34
2016-12-20T12:28:26.280Z,1018.37
2016-12-20T12:29:37.275Z,1018.41
2016-12-20T12:30:48.263Z,1018.31
2016-12-20T12:31:59.650Z,1018.27
2016-12-20T12:33:10.643Z,1018.26
2016-12-20T12:34:21.629Z,1018.26
2016-12-20T12:35:32.672Z,1018.3
2016-12-20T12:36:43.696Z,1018.28
2016-12-20T12:37:54.700Z,1018.2
2016-12-20T12:39:05.692Z,1018.2
2016-12-20T12:40:16.691Z,1018.19
2016-12-20T12:41:27.676Z,1018.15
2016-12-20T12:42:38.857Z,1018.23
2016-12-20T12:43:49.844Z,1018.19
2016-12-20T12:45:00.830Z,1018.17
2016-12-20T12:46:11.814Z,1018.14
2016-12-20T12:47:22.804Z,1018.12
2016-12-20T12:48:33.798Z,1018.14
2016-12-20T12:49:44.786Z,1018.07
2016-12-20T12:50:55.778Z,1018.06
2016-12-20T12:52:06.766Z,1018.03
2016-12-20T12:53:17.760Z,1017.97
2016-12-20T12:54:28.945Z,1017.96
2016-12-20T12:55:40.134Z,1017.91
2016-12-20T12:56:51.127Z,1017.95
2016-12-20T12:58:02.120Z,1017.95
2016-12-20T12:59:13.112Z,1017.92
2016-12-20T13:00:24.102Z,1017.9
2016-12-20T13:01:35.282Z,1017.92
2016-12-20T13:02:46.480Z,1017.9
2016-12-20T13:03:57.670Z,1017.89
2016-12-20T13:05:08.667Z,1017.88
2016-12-20T13:06:19.654Z,1017.83
2016-12-20T13:07:30.645Z,1017.77
2016-12-20T13:08:41.625Z,1017.74
2016-12-20T13:09:52.622Z,1017.75
2016-12-20T13:11:03.609Z,1017.72
2016-12-20T13:12:14.792Z,1017.72
2016-12-20T13:13:25.777Z,1017.73
2016-12-20T13:14:36.967Z,1017.72
2016-12-20T13:15:48.154Z,1017.73
2016-12-20T13:16:59.139Z,1017.74
2016-12-20T13:18:10.157Z,1017.78
2016-12-20T13:19:21.190Z,1017.78
2016-12-20T13:20:32.175Z,1017.81
2016-12-20T13:21:43.165Z,1017.82
2016-12-20T13:22:54.155Z,1017.84
2016-12-20T13:24:05.350Z,1017.84
2016-12-20T13:25:16.345Z,1017.81
2016-12-20T13:26:27.336Z,1017.8
2016-12-20T13:27:38.352Z,1017.86
2016-12-20T13:28:49.346Z,1017.87
2016-12-20T13:30:00.527Z,1017.82
2016-12-20T13:31:11.505Z,1017.84
2016-12-20T13:32:22.700Z,1017.88
2016-12-20T13:33:33.688Z,1017.84
2016-12-20T13:34:44.887Z,1017.89
2016-12-20T13:35:55.872Z,1017.83
2016-12-20T13:37:06.856Z,1017.81
2016-12-20T13:38:17.848Z,1017.83
2016-12-20T13:39:28.827Z,1017.89
2016-12-20T13:40:39.815Z,1017.91
2016-12-20T13:41:51.000Z,1017.94
2016-12-20T13:43:01.988Z,1017.92
2016-12-20T13:44:12.981Z,1017.96
2016-12-20T13:45:23.975Z,1017.97
2016-12-20T13:46:34.963Z,1017.97
2016-12-20T13:47:45.951Z,1017.98
2016-12-20T13:48:56.939Z,1017.9
2016-12-20T13:50:07.950Z,1017.95
2016-12-20T13:51:18.936Z,1018
2016-12-20T13:52:29.922Z,1017.98
2016-12-20T13:53:41.110Z,1018.04
2016-12-20T13:54:52.148Z,1018.11
2016-12-20T13:56:03.194Z,1018.12
2016-12-20T13:57:14.181Z,1018.11
2016-12-20T13:58:25.364Z,1018.11
2016-12-20T13:59:36.555Z,1018.09
2016-12-20T14:00:47.545Z,1018.13
2016-12-20T14:01:58.584Z,1018.16
2016-12-20T14:03:09.568Z,1018.23
2016-12-20T14:04:20.556Z,1018.23
2016-12-20T14:05:31.539Z,1018.26
2016-12-20T14:06:42.560Z,1018.26
2016-12-20T14:07:53.623Z,1018.25
2016-12-20T14:09:04.612Z,1018.19
2016-12-20T14:10:15.806Z,1018.22
2016-12-20T14:11:26.801Z,1018.21
2016-12-20T14:12:37.983Z,1018.16
2016-12-20T14:13:49.167Z,1018.14
2016-12-20T14:15:00.351Z,1018.13
2016-12-20T14:16:11.334Z,1018.09
2016-12-20T14:17:22.348Z,1018.07
2016-12-20T14:18:33.337Z,1018.07
2016-12-20T14:19:44.369Z,1018.08
2016-12-20T14:20:55.357Z,1018.08
2016-12-20T14:22:06.345Z,1018.06